Time;durP1;ratioP1;P1;durP2;ratioP2;P2;SDS_P1;SDS_P2;PMS_P1;PMS_P2;Temp;Humidity;BMP_temperature;BMP_pressure;BME280_temperature;BME280_humidity;BME280_pressure;Samples;Min_cycle;Max_cycle;Signal;HPM_P1;HPM_P2
2022/03/12 00:01:38;;;;;;;38.13;15.05;;;;;;;;;;6300599;28;20048;-52
2022/03/12 00:04:40;;;;;;;36.92;15.73;;;;;;;;;;6306326;28;20206;-56
2022/03/12 00:07:41;;;;;;;39.67;15.02;;;;;;;;;;6316051;28;20033;-51
2022/03/12 00:10:46;;;;;;;39.63;15.63;;;;;;;;;;6310854;28;20086;-52
2022/03/12 00:13:49;;;;;;;37.78;14.23;;;;;;;;;;6293288;28;20297;-50
2022/03/12 00:16:50;;;;;;;42.15;15.80;;;;;;;;;;6296179;28;20048;-55
2022/03/12 00:19:51;;;;;;;45.00;15.95;;;;;;;;;;6292168;28;20505;-58
2022/03/12 00:22:52;;;;;;;41.53;15.50;;;;;;;;;;6298273;28;20049;-52
2022/03/12 00:25:52;;;;;;;36.13;14.68;;;;;;;;;;6295841;28;20503;-50
2022/03/12 00:28:54;;;;;;;41.17;15.80;;;;;;;;;;6296019;28;20048;-55
2022/03/12 00:31:55;;;;;;;43.20;16.23;;;;;;;;;;6295296;28;20081;-59
2022/03/12 00:34:55;;;;;;;36.63;14.80;;;;;;;;;;6297440;28;21037;-59
2022/03/12 00:37:56;;;;;;;42.25;14.98;;;;;;;;;;6304766;28;20475;-59
2022/03/12 00:41:02;;;;;;;40.38;15.90;;;;;;;;;;6304739;28;20112;-58
2022/03/12 00:44:04;;;;;;;43.78;16.20;;;;;;;;;;6301177;28;20060;-57
2022/03/12 00:47:06;;;;;;;40.85;16.42;;;;;;;;;;6314892;28;20497;-57
2022/03/12 00:50:07;;;;;;;38.55;16.38;;;;;;;;;;6316838;28;20042;-55
2022/03/12 00:53:08;;;;;;;44.88;17.00;;;;;;;;;;6315983;28;20064;-51
2022/03/12 00:56:09;;;;;;;42.85;17.67;;;;;;;;;;6310565;28;20088;-50
2022/03/12 00:59:10;;;;;;;51.05;17.00;;;;;;;;;;6314705;28;20076;-51
2022/03/12 01:02:14;;;;;;;42.08;16.20;;;;;;;;;;6307169;28;20130;-52
2022/03/12 01:05:18;;;;;;;63.33;20.35;;;;;;;;;;6313573;28;20059;-51
2022/03/12 01:08:20;;;;;;;50.70;18.25;;;;;;;;;;6304892;28;20135;-49
2022/03/12 01:11:21;;;;;;;;;;;;;;;;;;6301688;28;20621;-51
2022/03/12 01:14:22;;;;;;;43.17;16.08;;;;;;;;;;6299427;28;19930;-51
2022/03/12 01:17:22;;;;;;;45.30;16.27;;;;;;;;;;6298269;28;20048;-51
2022/03/12 01:20:23;;;;;;;41.03;15.50;;;;;;;;;;6301836;28;20123;-50
2022/03/12 01:23:25;;;;;;;43.63;15.90;;;;;;;;;;6300883;28;20075;-51
2022/03/12 01:26:25;;;;;;;39.97;15.82;;;;;;;;;;6300597;28;20056;-52
2022/03/12 01:29:27;;;;;;;39.05;16.58;;;;;;;;;;6292380;28;20047;-52
2022/03/12 01:32:27;;;;;;;43.63;15.82;;;;;;;;;;6294628;28;20127;-51
2022/03/12 01:35:28;;;;;;;35.72;15.13;;;;;;;;;;6290097;28;20196;-54
2022/03/12 01:38:32;;;;;;;38.22;15.38;;;;;;;;;;6300238;28;20130;-52
2022/03/12 01:41:40;;;;;;;38.92;15.15;;;;;;;;;;6300279;28;20071;-52
2022/03/12 01:44:42;;;;;;;38.55;14.98;;;;;;;;;;6294664;28;20048;-60
2022/03/12 01:47:44;;;;;;;41.55;16.85;;;;;;;;;;6296423;28;20049;-51
2022/03/12 01:50:44;;;;;;;35.15;14.35;;;;;;;;;;6297309;28;20044;-57
2022/03/12 01:53:45;;;;;;;35.28;13.88;;;;;;;;;;6298635;28;20059;-53
2022/03/12 01:56:46;;;;;;;35.72;14.05;;;;;;;;;;6287942;28;20049;-53
2022/03/12 01:59:48;;;;;;;36.25;14.43;;;;;;;;;;6298776;28;20075;-53
2022/03/12 02:02:54;;;;;;;38.03;14.27;;;;;;;;;;6305433;28;20052;-58
2022/03/12 02:05:56;;;;;;;41.20;14.77;;;;;;;;;;6303025;28;20070;-59
2022/03/12 02:08:59;;;;;;;39.65;15.40;;;;;;;;;;6317327;28;20589;-51
2022/03/12 02:12:00;;;;;;;43.55;15.50;;;;;;;;;;6310905;28;20493;-51
2022/03/12 02:15:02;;;;;;;41.45;13.88;;;;;;;;;;6299545;28;20047;-56
2022/03/12 02:18:03;;;;;;;37.92;14.30;;;;;;;;;;6296830;28;20074;-52
2022/03/12 02:21:05;;;;;;;37.13;14.50;;;;;;;;;;6299388;28;20440;-51
2022/03/12 02:24:11;;;;;;;33.20;13.87;;;;;;;;;;6298598;28;20118;-51
2022/03/12 02:27:12;;;;;;;40.63;14.38;;;;;;;;;;6295682;28;20294;-51
2022/03/12 02:30:13;;;;;;;35.97;13.07;;;;;;;;;;6299266;28;20811;-50
2022/03/12 02:33:13;;;;;;;33.45;13.60;;;;;;;;;;6298008;28;20115;-51
2022/03/12 02:36:25;;;;;;;37.33;12.82;;;;;;;;;;6299046;28;20442;-53
2022/03/12 02:39:27;;;;;;;32.30;13.43;;;;;;;;;;6299809;28;20475;-50
2022/03/12 02:42:28;;;;;;;34.00;14.00;;;;;;;;;;6293540;28;20044;-51
2022/03/12 02:45:29;;;;;;;33.75;13.43;;;;;;;;;;6299471;28;20044;-52
2022/03/12 02:48:30;;;;;;;34.28;13.02;;;;;;;;;;6298168;28;20056;-52
2022/03/12 02:51:34;;;;;;;36.08;13.95;;;;;;;;;;6300174;28;20071;-49
2022/03/12 02:54:35;;;;;;;36.72;14.27;;;;;;;;;;6295102;28;20036;-59
2022/03/12 02:57:35;;;;;;;37.13;14.23;;;;;;;;;;6300348;28;20127;-51
2022/03/12 03:00:37;;;;;;;36.92;14.15;;;;;;;;;;6294147;28;20740;-51
2022/03/12 03:03:39;;;;;;;32.13;14.10;;;;;;;;;;6297859;28;20048;-50
2022/03/12 03:06:40;;;;;;;37.60;14.75;;;;;;;;;;6294788;28;20490;-49
2022/03/12 03:09:40;;;;;;;36.13;14.65;;;;;;;;;;6306504;28;20049;-49
2022/03/12 03:12:41;;;;;;;33.55;13.90;;;;;;;;;;6305441;28;20522;-50
2022/03/12 03:16:01;;;;;;;30.55;13.30;;;;;;;;;;6301226;28;20131;-53
2022/03/12 03:19:02;;;;;;;36.20;14.13;;;;;;;;;;6301553;28;20064;-50
2022/03/12 03:22:04;;;;;;;41.55;15.38;;;;;;;;;;6304350;28;20059;-53
2022/03/12 03:25:05;;;;;;;37.97;15.17;;;;;;;;;;6302328;28;20095;-50
2022/03/12 03:28:07;;;;;;;36.15;14.77;;;;;;;;;;6303317;28;20043;-57
2022/03/12 03:31:07;;;;;;;38.97;16.40;;;;;;;;;;6300681;28;20048;-49
2022/03/12 03:34:08;;;;;;;36.60;14.82;;;;;;;;;;6303588;28;20475;-52
2022/03/12 03:37:09;;;;;;;44.35;16.58;;;;;;;;;;6300846;28;20569;-51
2022/03/12 03:40:10;;;;;;;48.08;17.60;;;;;;;;;;6301171;28;20051;-51
2022/03/12 03:43:14;;;;;;;45.30;16.37;;;;;;;;;;6301057;28;20466;-55
2022/03/12 03:46:21;;;;;;;39.80;16.95;;;;;;;;;;6303279;28;20834;-51
2022/03/12 03:49:22;;;;;;;46.78;17.85;;;;;;;;;;6302613;28;20040;-53
2022/03/12 03:52:22;;;;;;;43.08;16.30;;;;;;;;;;6301812;28;20530;-51
2022/03/12 03:55:28;;;;;;;35.50;14.63;;;;;;;;;;6299540;28;20044;-50
2022/03/12 03:58:32;;;;;;;33.63;14.10;;;;;;;;;;6304981;28;20056;-51
2022/03/12 04:01:40;;;;;;;29.95;13.40;;;;;;;;;;6296552;28;20045;-52
2022/03/12 04:04:42;;;;;;;36.05;14.10;;;;;;;;;;6299038;28;20083;-53
2022/03/12 04:07:43;;;;;;;34.95;15.40;;;;;;;;;;6303375;28;20094;-56
2022/03/12 04:10:43;;;;;;;39.05;16.38;;;;;;;;;;6301337;28;20629;-54
2022/03/12 04:13:46;;;;;;;43.85;16.75;;;;;;;;;;6300720;28;20870;-51
2022/03/12 04:16:47;;;;;;;43.97;16.60;;;;;;;;;;6298510;28;20047;-52
2022/03/12 04:19:47;;;;;;;42.90;15.68;;;;;;;;;;6298606;28;20045;-51
2022/03/12 04:22:51;;;;;;;50.85;16.17;;;;;;;;;;6303316;28;20139;-52
2022/03/12 04:25:58;;;;;;;42.00;15.35;;;;;;;;;;6294047;28;20457;-51
2022/03/12 04:28:59;;;;;;;41.28;15.68;;;;;;;;;;6300404;28;20052;-52
2022/03/12 04:31:59;;;;;;;42.13;16.35;;;;;;;;;;6301204;28;20052;-51
2022/03/12 04:35:00;;;;;;;40.67;15.70;;;;;;;;;;6302932;28;20135;-52
2022/03/12 04:38:03;;;;;;;35.42;15.15;;;;;;;;;;6300120;28;20405;-51
2022/03/12 04:41:03;;;;;;;;;;;;;;;;;;6298555;28;20049;-54
2022/03/12 04:44:05;;;;;;;38.00;14.88;;;;;;;;;;6302329;28;19935;-51
2022/03/12 04:47:10;;;;;;;36.78;15.30;;;;;;;;;;6300039;28;20530;-52
2022/03/12 04:50:14;;;;;;;39.30;15.05;;;;;;;;;;6296299;28;20549;-49
2022/03/12 04:53:15;;;;;;;40.30;16.95;;;;;;;;;;6301880;28;20069;-51
2022/03/12 04:56:16;;;;;;;46.38;16.45;;;;;;;;;;6299018;28;20053;-51
2022/03/12 04:59:17;;;;;;;35.35;15.57;;;;;;;;;;6299675;28;20131;-52
2022/03/12 05:02:18;;;;;;;44.78;16.60;;;;;;;;;;6301520;28;20131;-51
2022/03/12 05:05:19;;;;;;;40.25;15.13;;;;;;;;;;6302316;28;20062;-50
2022/03/12 05:08:22;;;;;;;39.95;15.82;;;;;;;;;;6303432;28;20087;-50
2022/03/12 05:11:23;;;;;;;39.63;15.30;;;;;;;;;;6300955;28;20422;-52
2022/03/12 05:14:24;;;;;;;43.63;16.52;;;;;;;;;;6291655;28;20044;-51
2022/03/12 05:17:27;;;;;;;44.15;15.70;;;;;;;;;;6299626;28;20127;-54
2022/03/12 05:20:28;;;;;;;42.40;16.30;;;;;;;;;;6298803;28;20134;-51
2022/03/12 05:23:29;;;;;;;42.83;16.67;;;;;;;;;;6302553;28;20052;-50
2022/03/12 05:26:30;;;;;;;41.58;15.40;;;;;;;;;;6295724;28;20139;-51
2022/03/12 05:29:31;;;;;;;39.70;15.02;;;;;;;;;;6300233;28;20048;-50
2022/03/12 05:32:31;;;;;;;48.28;16.23;;;;;;;;;;6299680;28;21187;-52
2022/03/12 05:35:33;;;;;;;38.83;14.40;;;;;;;;;;6302903;28;20123;-50
2022/03/12 05:38:36;;;;;;;36.67;15.07;;;;;;;;;;6297351;28;20055;-50
2022/03/12 05:41:41;;;;;;;41.60;15.23;;;;;;;;;;6299754;28;20479;-50
2022/03/12 05:44:41;;;;;;;43.17;15.88;;;;;;;;;;6298443;28;20490;-52
2022/03/12 05:47:42;;;;;;;34.72;13.70;;;;;;;;;;6295772;28;20036;-53
2022/03/12 05:50:45;;;;;;;49.95;17.25;;;;;;;;;;6297971;28;20044;-50
2022/03/12 05:53:47;;;;;;;40.25;15.57;;;;;;;;;;6301554;28;20072;-51
2022/03/12 05:56:48;;;;;;;43.70;15.90;;;;;;;;;;6305031;28;20063;-52
2022/03/12 05:59:49;;;;;;;36.22;15.50;;;;;;;;;;6295411;28;20147;-52
2022/03/12 06:02:51;;;;;;;44.53;17.23;;;;;;;;;;6303108;28;20044;-51
2022/03/12 06:05:59;;;;;;;;;;;;;;;;;;6300748;28;20043;-51
2022/03/12 06:09:00;;;;;;;40.50;15.90;;;;;;;;;;6293298;28;19959;-59
2022/03/12 06:12:00;;;;;;;43.70;15.57;;;;;;;;;;6297024;28;20037;-50
2022/03/12 06:15:04;;;;;;;44.75;16.63;;;;;;;;;;6298596;28;20140;-50
2022/03/12 06:18:05;;;;;;;46.10;17.17;;;;;;;;;;6301420;28;20040;-53
2022/03/12 06:21:06;;;;;;;40.45;17.35;;;;;;;;;;6298235;28;20712;-51
2022/03/12 06:24:07;;;;;;;60.90;21.88;;;;;;;;;;6302789;28;20495;-50
2022/03/12 06:27:08;;;;;;;52.67;21.98;;;;;;;;;;6314124;28;20062;-51
2022/03/12 06:30:12;;;;;;;59.00;22.02;;;;;;;;;;6301090;28;20118;-50
2022/03/12 06:33:18;;;;;;;57.85;21.90;;;;;;;;;;6294983;28;20044;-57
2022/03/12 06:36:21;;;;;;;56.67;21.95;;;;;;;;;;6300069;28;20055;-53
2022/03/12 06:39:22;;;;;;;65.30;24.13;;;;;;;;;;6294674;28;20052;-51
2022/03/12 06:42:24;;;;;;;75.47;26.80;;;;;;;;;;6303928;28;20116;-51
2022/03/12 06:45:30;;;;;;;57.60;21.73;;;;;;;;;;6319085;28;20404;-52
2022/03/12 06:48:32;;;;;;;52.00;21.67;;;;;;;;;;6311928;28;20094;-52
2022/03/12 06:51:33;;;;;;;54.88;21.08;;;;;;;;;;6321899;28;20083;-51
2022/03/12 06:54:35;;;;;;;54.50;20.42;;;;;;;;;;6317958;28;20051;-52
2022/03/12 06:57:36;;;;;;;80.93;24.90;;;;;;;;;;6318343;28;20072;-51
2022/03/12 07:00:38;;;;;;;57.30;19.58;;;;;;;;;;6317271;28;20044;-60
2022/03/12 07:03:39;;;;;;;83.82;27.02;;;;;;;;;;6317999;28;20068;-59
2022/03/12 07:06:40;;;;;;;85.38;24.90;;;;;;;;;;6309043;28;20055;-52
2022/03/12 07:09:41;;;;;;;51.55;19.10;;;;;;;;;;6312830;28;20064;-56
2022/03/12 07:12:44;;;;;;;94.05;25.23;;;;;;;;;;6308119;28;20132;-59
2022/03/12 07:15:45;;;;;;;90.35;25.63;;;;;;;;;;6305948;28;20075;-57
2022/03/12 07:18:46;;;;;;;46.53;17.27;;;;;;;;;;6308156;28;20748;-57
2022/03/12 07:21:49;;;;;;;40.80;16.42;;;;;;;;;;6311187;28;20135;-62
2022/03/12 07:24:49;;;;;;;;;;;;;;;;;;6312048;28;20487;-53
2022/03/12 07:27:50;;;;;;;45.63;17.55;;;;;;;;;;6312320;28;19985;-57
2022/03/12 07:30:51;;;;;;;48.28;17.20;;;;;;;;;;6319869;28;20123;-54
2022/03/12 07:33:51;;;;;;;42.55;17.77;;;;;;;;;;6317279;28;20067;-56
2022/03/12 07:36:52;;;;;;;55.55;18.58;;;;;;;;;;6319433;28;20684;-58
2022/03/12 07:39:53;;;;;;;61.38;20.88;;;;;;;;;;6313999;28;20800;-56
2022/03/12 07:42:55;;;;;;;64.50;20.88;;;;;;;;;;6301796;28;20833;-59
2022/03/12 07:45:57;;;;;;;68.18;23.08;;;;;;;;;;6317509;28;20556;-57
2022/03/12 07:48:59;;;;;;;68.53;21.70;;;;;;;;;;6312627;28;20036;-57
2022/03/12 07:52:00;;;;;;;52.40;18.10;;;;;;;;;;6309148;28;20067;-54
2022/03/12 07:55:02;;;;;;;49.25;19.38;;;;;;;;;;6314980;28;20453;-62
2022/03/12 07:58:03;;;;;;;49.78;18.92;;;;;;;;;;6312997;28;20052;-53
2022/03/12 08:01:05;;;;;;;59.95;21.00;;;;;;;;;;6294704;28;20106;-55
2022/03/12 08:04:06;;;;;;;51.88;20.48;;;;;;;;;;6300729;28;20121;-60
2022/03/12 08:07:07;;;;;;;49.17;19.98;;;;;;;;;;6300208;28;20040;-53
2022/03/12 08:10:09;;;;;;;55.33;18.33;;;;;;;;;;6307674;28;20517;-53
2022/03/12 08:13:09;;;;;;;51.73;18.60;;;;;;;;;;6300263;28;20048;-54
2022/03/12 08:16:15;;;;;;;47.22;16.15;;;;;;;;;;6319886;28;20410;-52
2022/03/12 08:19:16;;;;;;;41.80;16.13;;;;;;;;;;6318996;28;20074;-61
2022/03/12 08:22:17;;;;;;;38.97;15.70;;;;;;;;;;6314556;28;20052;-56
2022/03/12 08:25:18;;;;;;;36.15;13.95;;;;;;;;;;6303941;28;20056;-56
2022/03/12 08:28:19;;;;;;;36.28;13.15;;;;;;;;;;6303942;28;20036;-56
2022/03/12 08:31:19;;;;;;;35.75;12.93;;;;;;;;;;6295061;28;20072;-58
2022/03/12 08:34:20;;;;;;;30.15;12.75;;;;;;;;;;6295258;28;20051;-58
2022/03/12 08:37:21;;;;;;;30.35;13.20;;;;;;;;;;6297329;28;20053;-58
2022/03/12 08:40:23;;;;;;;27.27;12.40;;;;;;;;;;6305509;28;20048;-60
2022/03/12 08:43:23;;;;;;;31.83;12.18;;;;;;;;;;6293675;28;20463;-61
2022/03/12 08:46:24;;;;;;;27.35;12.27;;;;;;;;;;6300966;28;20044;-61
2022/03/12 08:49:25;;;;;;;28.25;12.48;;;;;;;;;;6300154;28;20182;-59
2022/03/12 08:52:26;;;;;;;30.08;12.40;;;;;;;;;;6315925;28;20117;-62
2022/03/12 08:55:26;;;;;;;33.33;13.07;;;;;;;;;;6318549;28;20166;-60
2022/03/12 08:58:29;;;;;;;28.55;11.30;;;;;;;;;;6319035;28;20052;-62
2022/03/12 09:01:31;;;;;;;25.33;9.70;;;;;;;;;;6316363;28;20051;-62
2022/03/12 09:04:32;;;;;;;32.63;13.13;;;;;;;;;;6316903;28;20072;-60
2022/03/12 09:07:34;;;;;;;33.80;13.68;;;;;;;;;;6307166;28;20391;-62
2022/03/12 09:10:34;;;;;;;26.90;11.63;;;;;;;;;;6305599;28;20096;-63
2022/03/12 09:13:35;;;;;;;25.30;11.35;;;;;;;;;;6305989;28;20119;-62
2022/03/12 09:16:36;;;;;;;24.92;10.60;;;;;;;;;;6305686;28;20051;-63
2022/03/12 09:19:37;;;;;;;23.30;9.45;;;;;;;;;;6309310;28;20040;-62
2022/03/12 09:22:38;;;;;;;24.30;9.13;;;;;;;;;;6313156;28;20082;-62
2022/03/12 09:25:39;;;;;;;19.90;8.70;;;;;;;;;;6309600;28;20147;-62
2022/03/12 09:28:40;;;;;;;17.38;8.40;;;;;;;;;;6303399;28;20040;-62
2022/03/12 09:31:41;;;;;;;22.50;9.52;;;;;;;;;;6294799;28;20049;-62
2022/03/12 09:34:42;;;;;;;21.67;10.32;;;;;;;;;;6316600;28;20048;-62
2022/03/12 09:37:42;;;;;;;23.63;9.35;;;;;;;;;;6311984;28;20054;-62
2022/03/12 09:40:44;;;;;;;22.52;9.32;;;;;;;;;;6316661;28;20079;-62
2022/03/12 09:43:45;;;;;;;23.57;10.03;;;;;;;;;;6317312;28;20051;-62
2022/03/12 09:46:46;;;;;;;29.23;10.82;;;;;;;;;;6312029;28;20122;-63
2022/03/12 09:49:46;;;;;;;19.85;8.70;;;;;;;;;;6303438;28;20142;-60
2022/03/12 09:52:48;;;;;;;23.42;9.20;;;;;;;;;;6309390;28;20109;-61
2022/03/12 09:55:48;;;;;;;23.38;9.05;;;;;;;;;;6309814;28;20055;-62
2022/03/12 09:58:49;;;;;;;21.27;9.20;;;;;;;;;;6308635;28;20131;-62
2022/03/12 10:01:50;;;;;;;19.38;9.13;;;;;;;;;;6310959;28;20036;-61
2022/03/12 10:04:51;;;;;;;23.83;9.68;;;;;;;;;;6310579;28;20079;-62
2022/03/12 10:07:52;;;;;;;25.35;9.80;;;;;;;;;;6311901;28;20119;-63
2022/03/12 10:10:52;;;;;;;24.45;10.90;;;;;;;;;;6301542;28;20498;-61
2022/03/12 10:13:53;;;;;;;19.30;9.23;;;;;;;;;;6314981;28;20139;-61
2022/03/12 10:16:54;;;;;;;25.75;9.43;;;;;;;;;;6304552;28;20052;-62
2022/03/12 10:19:54;;;;;;;24.63;10.82;;;;;;;;;;6305025;28;20052;-63
2022/03/12 10:22:55;;;;;;;22.60;10.65;;;;;;;;;;6306071;28;20044;-63
2022/03/12 10:25:56;;;;;;;25.17;10.20;;;;;;;;;;6304130;28;20056;-63
2022/03/12 10:28:58;;;;;;;28.67;11.98;;;;;;;;;;6307649;28;20040;-62
2022/03/12 10:31:58;;;;;;;22.92;10.52;;;;;;;;;;6301530;28;20086;-62
2022/03/12 10:35:01;;;;;;;24.60;10.50;;;;;;;;;;6303971;28;20909;-63
2022/03/12 10:38:09;;;;;;;28.25;12.18;;;;;;;;;;6299267;28;20044;-61
2022/03/12 10:41:11;;;;;;;21.48;9.52;;;;;;;;;;6302250;28;20139;-66
2022/03/12 10:44:11;;;;;;;21.85;9.75;;;;;;;;;;6299957;28;20257;-65
2022/03/12 10:47:23;;;;;;;21.38;8.82;;;;;;;;;;6299987;28;20056;-65
2022/03/12 10:50:25;;;;;;;19.20;8.57;;;;;;;;;;6299271;28;20596;-65
2022/03/12 10:53:26;;;;;;;21.52;9.48;;;;;;;;;;6301740;28;20079;-66
2022/03/12 10:56:48;;;;;;;27.50;9.82;;;;;;;;;;6305492;28;20048;-64
2022/03/12 10:59:55;;;;;;;21.73;9.32;;;;;;;;;;6306511;28;20093;-64
2022/03/12 11:03:00;;;;;;;21.48;9.38;;;;;;;;;;6305025;28;20052;-67
2022/03/12 11:06:05;;;;;;;19.52;8.60;;;;;;;;;;6301731;28;20627;-64
2022/03/12 11:09:06;;;;;;;17.83;8.30;;;;;;;;;;6305013;28;20502;-63
2022/03/12 11:12:30;;;;;;;17.75;7.43;;;;;;;;;;6304325;28;20075;-63
2022/03/12 11:15:32;;;;;;;14.60;7.38;;;;;;;;;;6303621;28;20048;-67
2022/03/12 11:18:34;;;;;;;26.17;11.00;;;;;;;;;;6303169;28;20040;-62
2022/03/12 11:21:37;;;;;;;35.13;15.05;;;;;;;;;;6298938;28;20437;-67
2022/03/12 11:24:49;;;;;;;20.73;8.70;;;;;;;;;;6296259;28;20067;-62
2022/03/12 11:27:50;;;;;;;20.98;9.25;;;;;;;;;;6300628;28;20052;-66
2022/03/12 11:30:51;;;;;;;20.00;9.10;;;;;;;;;;6308448;28;20056;-65
2022/03/12 11:33:53;;;;;;;20.08;7.53;;;;;;;;;;6308834;28;20651;-66
2022/03/12 11:36:56;;;;;;;13.63;6.72;;;;;;;;;;6300944;28;20189;-67
2022/03/12 11:39:59;;;;;;;15.32;7.65;;;;;;;;;;6300945;28;20518;-65
2022/03/12 11:42:59;;;;;;;;;;;;;;;;;;6305131;28;20048;-66
2022/03/12 11:46:00;;;;;;;15.57;7.47;;;;;;;;;;6296842;28;19930;-64
2022/03/12 11:49:01;;;;;;;16.13;7.65;;;;;;;;;;6299654;28;20040;-66
2022/03/12 11:52:03;;;;;;;48.53;18.52;;;;;;;;;;6303280;28;20182;-65
2022/03/12 11:55:14;;;;;;;23.00;9.02;;;;;;;;;;6301378;28;20082;-66
2022/03/12 11:58:15;;;;;;;19.27;9.02;;;;;;;;;;6299634;28;20058;-66
2022/03/12 12:01:20;;;;;;;23.05;9.30;;;;;;;;;;6302372;28;20067;-67
2022/03/12 12:04:22;;;;;;;15.13;7.47;;;;;;;;;;6300356;28;20055;-68
2022/03/12 12:07:29;;;;;;;17.25;8.93;;;;;;;;;;6296291;28;20150;-67
2022/03/12 12:10:31;;;;;;;44.45;17.52;;;;;;;;;;6301574;28;20052;-67
2022/03/12 12:13:32;;;;;;;;;;;;;;;;;;6299954;28;20143;-67
2022/03/12 12:16:32;;;;;;;18.70;7.88;;;;;;;;;;6300776;28;19920;-67
2022/03/12 12:19:36;;;;;;;21.38;8.50;;;;;;;;;;6301750;28;20444;-66
2022/03/12 12:22:37;;;;;;;24.63;9.50;;;;;;;;;;6302603;28;20470;-66
2022/03/12 12:25:38;;;;;;;27.17;11.52;;;;;;;;;;6301852;28;20081;-65
2022/03/12 12:28:52;;;;;;;51.03;19.83;;;;;;;;;;6300062;28;20101;-66
2022/03/12 12:32:03;;;;;;;19.77;8.15;;;;;;;;;;6299048;28;20052;-66
2022/03/12 12:35:04;;;;;;;16.08;6.53;;;;;;;;;;6300874;28;20040;-65
2022/03/12 12:38:08;;;;;;;64.65;22.63;;;;;;;;;;6297959;28;20082;-67
2022/03/12 12:41:10;;;;;;;15.77;6.28;;;;;;;;;;6297871;28;20044;-65
2022/03/12 12:44:11;;;;;;;16.73;7.10;;;;;;;;;;6302551;28;20075;-64
2022/03/12 12:47:20;;;;;;;25.23;11.02;;;;;;;;;;6298960;28;20040;-66
2022/03/12 12:50:23;;;;;;;15.13;6.70;;;;;;;;;;6296973;28;20079;-65
2022/03/12 12:53:34;;;;;;;18.45;7.45;;;;;;;;;;6298434;28;20052;-66
2022/03/12 12:56:41;;;;;;;12.43;6.07;;;;;;;;;;6297557;28;20051;-63
2022/03/12 12:59:44;;;;;;;13.65;6.28;;;;;;;;;;6297401;28;20044;-68
2022/03/12 13:02:45;;;;;;;13.05;6.38;;;;;;;;;;6296531;28;20131;-65
2022/03/12 13:05:54;;;;;;;11.63;6.22;;;;;;;;;;6295977;28;20052;-64
2022/03/12 13:08:57;;;;;;;14.63;6.55;;;;;;;;;;6296543;28;21142;-64
2022/03/12 13:12:01;;;;;;;15.57;6.45;;;;;;;;;;6295764;28;20040;-65
2022/03/12 13:15:04;;;;;;;14.75;6.43;;;;;;;;;;6298766;28;20599;-65
2022/03/12 13:18:30;;;;;;;15.70;6.55;;;;;;;;;;6296799;28;20054;-65
2022/03/12 13:21:35;;;;;;;13.18;6.53;;;;;;;;;;6296061;28;20091;-66
2022/03/12 13:24:49;;;;;;;13.82;6.55;;;;;;;;;;6297723;28;20055;-64
2022/03/12 13:28:01;;;;;;;13.43;5.85;;;;;;;;;;6298632;28;20490;-66
2022/03/12 13:31:28;;;;;;;15.35;6.75;;;;;;;;;;6298707;28;20044;-64
2022/03/12 13:34:29;;;;;;;14.13;6.57;;;;;;;;;;6297480;28;20129;-65
2022/03/12 13:37:29;;;;;;;13.77;6.50;;;;;;;;;;6296966;28;20044;-65
2022/03/12 13:40:31;;;;;;;21.70;7.57;;;;;;;;;;6296413;28;20044;-66
2022/03/12 13:43:32;;;;;;;13.43;6.97;;;;;;;;;;6297675;28;20140;-66
2022/03/12 13:46:33;;;;;;;47.25;19.15;;;;;;;;;;6294694;28;20056;-64
2022/03/12 13:49:40;;;;;;;17.43;7.47;;;;;;;;;;6297192;28;20461;-65
2022/03/12 13:52:41;;;;;;;16.65;7.68;;;;;;;;;;6295626;28;20048;-64
2022/03/12 13:55:43;;;;;;;17.10;6.43;;;;;;;;;;6294657;28;20075;-65
2022/03/12 13:58:46;;;;;;;11.63;5.05;;;;;;;;;;6301244;28;20077;-67
2022/03/12 14:01:47;;;;;;;15.13;6.53;;;;;;;;;;6308257;28;20065;-65
2022/03/12 14:04:48;;;;;;;13.77;6.33;;;;;;;;;;6305478;28;20183;-67
2022/03/12 14:07:50;;;;;;;14.05;6.55;;;;;;;;;;6304325;28;20608;-63
2022/03/12 14:10:52;;;;;;;20.23;9.30;;;;;;;;;;6299183;28;20122;-67
2022/03/12 14:13:59;;;;;;;17.00;7.15;;;;;;;;;;6299470;28;20052;-65
2022/03/12 14:17:02;;;;;;;24.73;9.90;;;;;;;;;;6293713;28;20076;-66
2022/03/12 14:20:06;;;;;;;21.52;8.20;;;;;;;;;;6299241;28;20044;-66
2022/03/12 14:23:08;;;;;;;18.77;8.63;;;;;;;;;;6297238;28;20463;-65
2022/03/12 14:26:09;;;;;;;19.95;9.07;;;;;;;;;;6293568;28;20897;-65
2022/03/12 14:29:10;;;;;;;17.35;7.50;;;;;;;;;;6296150;28;20135;-67
2022/03/12 14:32:15;;;;;;;15.65;7.30;;;;;;;;;;6300087;28;20079;-65
2022/03/12 14:35:16;;;;;;;12.85;6.57;;;;;;;;;;6297603;28;20202;-65
2022/03/12 14:38:17;;;;;;;14.90;7.15;;;;;;;;;;6292099;28;20971;-64
2022/03/12 14:41:18;;;;;;;14.48;6.75;;;;;;;;;;6296161;28;20056;-64
2022/03/12 14:44:20;;;;;;;18.08;7.93;;;;;;;;;;6296342;28;20066;-66
2022/03/12 14:47:21;;;;;;;27.90;12.15;;;;;;;;;;6293184;28;20109;-66
2022/03/12 14:50:22;;;;;;;18.52;8.45;;;;;;;;;;6303343;28;20753;-67
2022/03/12 14:53:23;;;;;;;21.10;9.57;;;;;;;;;;6304438;28;20048;-66
2022/03/12 14:56:23;;;;;;;21.45;8.43;;;;;;;;;;6304618;28;20151;-64
2022/03/12 14:59:28;;;;;;;16.48;7.68;;;;;;;;;;6299412;28;20466;-66
2022/03/12 15:02:30;;;;;;;18.55;8.27;;;;;;;;;;6299431;28;20040;-66
2022/03/12 15:05:34;;;;;;;;;;;;;;;;;;6301935;28;20138;-70
2022/03/12 15:08:37;;;;;;;16.60;7.13;;;;;;;;;;6298722;28;20305;-64
2022/03/12 15:11:38;;;;;;;16.73;7.78;;;;;;;;;;6302121;28;20072;-65
2022/03/12 15:14:41;;;;;;;14.65;6.50;;;;;;;;;;6300918;28;20040;-64
2022/03/12 15:17:43;;;;;;;25.20;9.52;;;;;;;;;;6299797;28;20167;-64
2022/03/12 15:20:49;;;;;;;15.57;7.47;;;;;;;;;;6301688;28;20131;-64
2022/03/12 15:23:51;;;;;;;27.13;9.82;;;;;;;;;;6302791;28;20129;-64
2022/03/12 15:27:02;;;;;;;28.00;9.95;;;;;;;;;;6306052;28;20060;-64
2022/03/12 15:30:06;;;;;;;15.07;7.00;;;;;;;;;;6305273;28;20586;-64
2022/03/12 15:33:09;;;;;;;17.85;7.82;;;;;;;;;;6302853;28;20070;-64
2022/03/12 15:36:17;;;;;;;20.35;8.23;;;;;;;;;;6306924;28;20040;-66
2022/03/12 15:39:17;;;;;;;13.93;6.63;;;;;;;;;;6304745;28;20051;-67
2022/03/12 15:42:18;;;;;;;14.77;6.80;;;;;;;;;;6308004;28;20052;-64
2022/03/12 15:45:19;;;;;;;14.23;6.10;;;;;;;;;;6307147;28;20515;-64
2022/03/12 15:48:20;;;;;;;13.52;6.57;;;;;;;;;;6301332;28;20120;-64
2022/03/12 15:51:22;;;;;;;14.02;6.60;;;;;;;;;;6303670;27;20071;-64
2022/03/12 15:54:22;;;;;;;13.60;6.85;;;;;;;;;;6309636;28;20063;-65
2022/03/12 15:57:23;;;;;;;16.92;7.22;;;;;;;;;;6305871;28;20165;-64
2022/03/12 16:00:24;;;;;;;15.32;7.68;;;;;;;;;;6308196;28;20680;-64
2022/03/12 16:03:25;;;;;;;22.23;11.88;;;;;;;;;;6306087;28;20111;-65
2022/03/12 16:06:26;;;;;;;17.35;9.27;;;;;;;;;;6305797;28;20048;-65
2022/03/12 16:09:26;;;;;;;18.55;9.00;;;;;;;;;;6303364;28;20062;-63
2022/03/12 16:12:27;;;;;;;22.13;9.02;;;;;;;;;;6307541;28;20156;-63
2022/03/12 16:15:28;;;;;;;22.98;9.73;;;;;;;;;;6302185;28;20563;-64
2022/03/12 16:18:29;;;;;;;20.30;9.68;;;;;;;;;;6303274;28;20047;-64
2022/03/12 16:21:30;;;;;;;18.60;8.67;;;;;;;;;;6307689;28;20055;-64
2022/03/12 16:24:31;;;;;;;18.35;8.43;;;;;;;;;;6317506;28;20448;-64
2022/03/12 16:27:32;;;;;;;21.33;8.90;;;;;;;;;;6308322;28;20054;-64
2022/03/12 16:30:33;;;;;;;23.73;9.65;;;;;;;;;;6308940;28;20040;-64
2022/03/12 16:33:34;;;;;;;25.30;11.15;;;;;;;;;;6311939;27;20044;-64
2022/03/12 16:36:36;;;;;;;35.20;12.57;;;;;;;;;;6312251;28;20044;-63
2022/03/12 16:39:37;;;;;;;30.77;11.50;;;;;;;;;;6311621;28;20099;-64
2022/03/12 16:42:38;;;;;;;15.27;7.15;;;;;;;;;;6310525;28;20052;-63
2022/03/12 16:45:43;;;;;;;17.75;7.75;;;;;;;;;;6313994;28;20094;-63
2022/03/12 16:48:47;;;;;;;12.35;6.65;;;;;;;;;;6317502;28;20051;-63
2022/03/12 16:51:48;;;;;;;27.25;11.27;;;;;;;;;;6311024;28;20047;-64
2022/03/12 16:54:50;;;;;;;28.33;10.50;;;;;;;;;;6307728;28;20048;-62
2022/03/12 16:57:54;;;;;;;29.17;10.80;;;;;;;;;;6309356;28;20062;-64
2022/03/12 17:00:55;;;;;;;27.30;10.88;;;;;;;;;;6307945;28;20806;-64
2022/03/12 17:03:55;;;;;;;28.48;10.90;;;;;;;;;;6309733;28;20048;-70
2022/03/12 17:06:57;;;;;;;31.38;12.23;;;;;;;;;;6315236;28;20051;-64
2022/03/12 17:09:58;;;;;;;37.83;15.03;;;;;;;;;;6304372;28;20048;-64
2022/03/12 17:13:00;;;;;;;47.72;16.35;;;;;;;;;;6310372;28;20063;-65
2022/03/12 17:16:04;;;;;;;83.38;24.02;;;;;;;;;;6311552;28;20055;-65
2022/03/12 17:19:09;;;;;;;78.05;24.17;;;;;;;;;;6310738;28;20039;-65
2022/03/12 17:22:10;;;;;;;70.15;25.08;;;;;;;;;;6302632;28;20045;-64
2022/03/12 17:25:11;;;;;;;72.97;25.10;;;;;;;;;;6311958;28;20474;-65
2022/03/12 17:28:12;;;;;;;79.85;26.05;;;;;;;;;;6311632;28;20052;-65
2022/03/12 17:31:13;;;;;;;76.97;26.42;;;;;;;;;;6313605;28;20039;-63
2022/03/12 17:34:15;;;;;;;82.63;31.15;;;;;;;;;;6310717;28;20048;-62
2022/03/12 17:37:18;;;;;;;85.70;33.13;;;;;;;;;;6313566;28;21090;-68
2022/03/12 17:40:19;;;;;;;91.47;31.42;;;;;;;;;;6313876;28;20525;-65
2022/03/12 17:43:22;;;;;;;161.30;41.57;;;;;;;;;;6313331;28;20036;-64
2022/03/12 17:46:24;;;;;;;170.48;45.40;;;;;;;;;;6313249;28;20070;-64
2022/03/12 17:49:25;;;;;;;153.65;40.03;;;;;;;;;;6304857;28;20581;-65